Accueil
METAR-TAF:

METAR-TAF

Aéroports :

Aéroport de Sukothaï

Sukhothaï, Thaïlande

latitude: 17-14-16N, longitude: 099-49-05E, altitude: 55 m

Observation

Le bulletin a été fait il y a 1 heure et 12 minutes, à 04:00 UTC
Vent 4 kt de ouest/sud-ouest
Température 29°C
Humidité 74%
Pression 1009 hPa
Visibilité 10 km ou plus
Quelques nuages à une hauteur de 2500 ft

METAR: VTPO 260400Z 24004KT 9999 FEW025 29/24 Q1009 NOSIG

Heure: 12:12 (05:12 UTC)

Prévision

Le bulletin a été fait il y a 6 heures et 12 minutes, à 23:00 UTC
Prévision valable du 26 à 00 UTC au 26 à 24 UTC
Vent 5 kt de sud/sud-ouest
Visibilité 10 km ou plus
Nuages épars à une hauteur de 2500 ft

TAF: VTPO 252300Z 2600/2624 20005KT 9999 SCT025

Observations et prévisions météorologiques de plus de 4000 aéroports (messages METAR et TAF).

Les stations disponibles sont représentées par des disques jaunes et rouges sur la carte.

Passer la souris dessus pour voir le nom de la station.

Cliquer dessus pour voir les observations et prévisions météorologiques.

Pour changer de carte: cliquez sur les boutons verts avec une croix noire pour zoomer, sur le bouton vert avec un tiret pour effectuer un zoom arrière, ou sur les flèches vertes pour les cartes adjacentes.


METAR-TAF: